createdAt,value
2019-05-16T00:04:37.963Z,72
2019-05-16T00:09:34.273Z,71.9
2019-05-16T00:14:31.316Z,72.2
2019-05-16T00:19:28.741Z,72.2
2019-05-16T00:24:24.749Z,72.1
2019-05-16T00:29:22.037Z,71.6
2019-05-16T00:34:18.913Z,72.5
2019-05-16T00:39:15.567Z,72.3
2019-05-16T00:44:12.910Z,71.6
2019-05-16T00:49:09.188Z,71.5
2019-05-16T00:54:08.065Z,71.4
2019-05-16T00:59:03.015Z,71.2
2019-05-16T01:03:59.860Z,71.1
2019-05-16T01:08:57.934Z,71
2019-05-16T01:13:52.705Z,71.1
2019-05-16T01:18:50.128Z,71.6
2019-05-16T01:23:48.178Z,71.9
2019-05-16T01:28:43.829Z,71.6
2019-05-16T01:33:40.927Z,72.4
2019-05-16T01:38:38.965Z,71.9
2019-05-16T01:43:34.599Z,72.1
2019-05-16T01:48:31.106Z,71.9
2019-05-16T01:53:28.009Z,72.1
2019-05-16T01:58:24.702Z,73.1
2019-05-16T02:03:21.731Z,72.2
2019-05-16T02:08:18.872Z,73.2
2019-05-16T02:13:17.730Z,72.7
2019-05-16T02:18:12.213Z,72.5
2019-05-16T02:23:08.471Z,72.3
2019-05-16T02:28:05.188Z,73.3
2019-05-16T02:33:02.435Z,72.7
2019-05-16T02:38:00.914Z,72.4
2019-05-16T02:42:56.641Z,72.7
2019-05-16T02:47:53.239Z,72.4
2019-05-16T02:52:51.646Z,72.7
2019-05-16T02:57:47.247Z,72.4
2019-05-16T03:02:44.244Z,72.2
2019-05-16T03:07:46.483Z,72.4
2019-05-16T03:12:40.838Z,72.3
2019-05-16T03:17:35.147Z,72.6
2019-05-16T03:22:31.945Z,72.7
2019-05-16T03:27:30.509Z,72.5
2019-05-16T03:32:26.005Z,72.5
2019-05-16T03:37:24.765Z,72.6
2019-05-16T03:42:20.545Z,72.7
2019-05-16T03:47:16.887Z,72.6
2019-05-16T03:52:13.774Z,73.1
2019-05-16T03:57:11.617Z,72.5
2019-05-16T04:02:04.761Z,72.5
2019-05-16T04:07:01.749Z,73.1
2019-05-16T04:12:01.738Z,72.8
2019-05-16T04:16:55.303Z,73.1
2019-05-16T04:21:52.377Z,73
2019-05-16T04:26:51.604Z,73.2
2019-05-16T04:31:45.383Z,72.6
2019-05-16T04:36:42.099Z,73.3
2019-05-16T04:41:40.883Z,73
2019-05-16T04:46:35.490Z,72.9
2019-05-16T04:51:32.876Z,73
2019-05-16T04:56:30.901Z,72.7
2019-05-16T05:01:30.486Z,72.4
2019-05-16T05:06:25.284Z,72.5
2019-05-16T05:11:21.870Z,72.3
2019-05-16T05:16:20.239Z,72.3
2019-05-16T05:21:15.243Z,72
2019-05-16T05:26:12.154Z,72.2
2019-05-16T05:31:10.771Z,71.7
2019-05-16T05:36:05.290Z,71.6
2019-05-16T05:41:02.355Z,71.5
2019-05-16T05:46:00.619Z,71.4
2019-05-16T05:50:56.427Z,71.4
2019-05-16T05:55:52.885Z,71.5
2019-05-16T06:00:51.648Z,71.4
2019-05-16T06:05:46.779Z,72.5
2019-05-16T06:10:43.570Z,71.9
2019-05-16T06:15:40.776Z,72.5
2019-05-16T06:20:39.975Z,71.6
2019-05-16T06:25:33.725Z,71.7
2019-05-16T06:30:30.870Z,71.2
2019-05-16T06:35:29.876Z,70.9
2019-05-16T06:40:24.891Z,71
2019-05-16T06:45:21.736Z,70.8
2019-05-16T06:50:20.784Z,71.2
2019-05-16T06:55:16.122Z,71.2
2019-05-16T07:00:13.007Z,70.8
2019-05-16T07:05:10.085Z,71.1
2019-05-16T07:10:06.819Z,71.4
2019-05-16T07:15:03.848Z,71.3
2019-05-16T07:20:00.830Z,71.3
2019-05-16T07:24:56.646Z,71
2019-05-16T07:29:54.029Z,70.7
2019-05-16T07:34:50.984Z,70.6
2019-05-16T07:39:50.561Z,70.4
2019-05-16T07:44:44.953Z,70.1
2019-05-16T07:49:42.273Z,70
2019-05-16T07:54:40.330Z,69.5
2019-05-16T07:59:36.020Z,68.8
2019-05-16T08:04:32.982Z,68.8
2019-05-16T08:09:30.583Z,68
2019-05-16T08:14:26.863Z,68.3
2019-05-16T08:19:25.253Z,67.7
2019-05-16T08:24:21.387Z,66.6
2019-05-16T08:29:18.242Z,66.5
2019-05-16T08:34:15.268Z,66.7
2019-05-16T08:39:12.051Z,66.4
2019-05-16T08:44:12.242Z,66.5
2019-05-16T08:49:06.445Z,66
2019-05-16T08:54:03.449Z,66.2
2019-05-16T08:59:02.376Z,66.3
2019-05-16T09:04:01.147Z,66.3
2019-05-16T09:08:58.366Z,65.9
2019-05-16T09:13:51.894Z,65.4
2019-05-16T09:18:50.808Z,64.7
2019-05-16T09:23:47.005Z,64.9
2019-05-16T09:28:43.714Z,64.7
2019-05-16T09:33:40.664Z,64.5
2019-05-16T09:38:38.571Z,64.8
2019-05-16T09:43:38.504Z,64.9
2019-05-16T09:48:32.178Z,64.3
2019-05-16T09:53:29.769Z,64.1
2019-05-16T09:58:27.750Z,63.5
2019-05-16T10:03:23.958Z,62.4
2019-05-16T10:08:21.115Z,62.4
2019-05-16T10:13:18.369Z,62
2019-05-16T10:18:16.820Z,62.4
2019-05-16T10:23:14.492Z,62.3
2019-05-16T10:28:09.499Z,64.3
2019-05-16T10:33:07.018Z,64.1
2019-05-16T10:38:03.676Z,64.4
2019-05-16T10:43:00.838Z,64.6
2019-05-16T10:47:57.158Z,64.5
2019-05-16T10:53:13.611Z,64.3
2019-05-16T10:57:50.907Z,64.3
2019-05-16T11:02:47.946Z,64.3
2019-05-16T11:07:45.134Z,64.3
2019-05-16T11:12:55.091Z,64.1
2019-05-16T11:17:39.262Z,63.9
2019-05-16T11:22:37.107Z,65.2
2019-05-16T11:27:33.308Z,65.5
2019-05-16T11:32:29.887Z,68.4
2019-05-16T11:37:27.882Z,69.5
2019-05-16T11:42:23.888Z,71.4
2019-05-16T11:47:20.800Z,71.9
2019-05-16T11:52:18.108Z,74.3
2019-05-16T11:57:14.288Z,75.5
2019-05-16T12:02:11.046Z,72.1
2019-05-16T12:07:07.897Z,72.8
2019-05-16T12:12:04.965Z,71.2
2019-05-16T12:17:02.045Z,70.4
2019-05-16T12:21:59.644Z,69.5
2019-05-16T12:26:56.856Z,68.3
2019-05-16T12:31:59.505Z,66.7
2019-05-16T12:36:50.830Z,65.9
2019-05-16T12:41:49.054Z,64.9
2019-05-16T12:46:47.341Z,65.8
2019-05-16T12:51:43.817Z,65.3
2019-05-16T12:56:41.036Z,65.9
2019-05-16T13:01:38.724Z,65.6
2019-05-16T13:06:37.062Z,65.1
2019-05-16T13:11:32.659Z,64.1
2019-05-16T13:16:29.750Z,64.4
2019-05-16T13:21:27.480Z,64.4
2019-05-16T13:26:23.744Z,64.5
2019-05-16T13:31:20.703Z,65.3
2019-05-16T13:36:17.716Z,64.4
2019-05-16T13:41:17.986Z,64.7
2019-05-16T13:46:08.762Z,65.1
2019-05-16T13:51:11.687Z,65.5
2019-05-16T13:56:06.245Z,65.1
2019-05-16T14:00:59.962Z,65
2019-05-16T14:05:58.159Z,65.5
2019-05-16T14:11:00.648Z,66.7
2019-05-16T14:15:51.793Z,68.8
2019-05-16T14:20:49.048Z,69.5
2019-05-16T14:25:47.938Z,69.6
2019-05-16T14:30:42.618Z,69.9
2019-05-16T14:35:40.003Z,70.4
2019-05-16T14:40:37.632Z,70.1
2019-05-16T14:45:36.989Z,70.7
2019-05-16T14:50:32.325Z,70.2
2019-05-16T14:55:29.578Z,71.1
2019-05-16T15:00:27.920Z,69.9
2019-05-16T15:05:24.230Z,68.7
2019-05-16T15:10:21.847Z,69.3
2019-05-16T15:15:23.967Z,69.2
2019-05-16T15:20:18.166Z,69
2019-05-16T15:25:13.390Z,68.5
2019-05-16T15:30:10.536Z,68.2
2019-05-16T15:35:07.774Z,66.6
2019-05-16T15:40:07.028Z,67.2
2019-05-16T15:45:01.849Z,67.2
2019-05-16T15:49:59.746Z,66.8
2019-05-16T15:54:55.741Z,65.9
2019-05-16T15:59:52.097Z,65.7
2019-05-16T16:04:48.859Z,65.1
2019-05-16T16:09:46.995Z,65.2
2019-05-16T16:14:43.301Z,65.3
2019-05-16T16:19:39.734Z,65.7
2019-05-16T16:24:36.599Z,64.9
2019-05-16T16:29:36.588Z,64.8
2019-05-16T16:34:31.301Z,65.6
2019-05-16T16:39:28.879Z,65.9
2019-05-16T16:44:27.440Z,66.1
2019-05-16T16:49:21.986Z,65.7
2019-05-16T16:54:18.575Z,65.1
2019-05-16T16:59:17.225Z,65.3
2019-05-16T17:04:12.902Z,64.8
2019-05-16T17:09:10.247Z,65.1
2019-05-16T17:14:07.379Z,65.1
2019-05-16T17:19:04.065Z,65.2
2019-05-16T17:24:00.959Z,64.7
2019-05-16T17:28:58.026Z,64.8
2019-05-16T17:33:57.683Z,65.6
2019-05-16T17:38:51.888Z,65.4
2019-05-16T17:43:49.466Z,65.1
2019-05-16T17:48:46.768Z,66
2019-05-16T17:53:43.230Z,65.7
2019-05-16T17:58:40.205Z,65.3
2019-05-16T18:03:37.510Z,65.3
2019-05-16T18:08:34.126Z,65.4
2019-05-16T18:13:31.431Z,65.6
2019-05-16T18:18:27.782Z,65.6
2019-05-16T18:23:27.272Z,66.1
2019-05-16T18:28:22.255Z,66.7
2019-05-16T18:33:18.970Z,66.5
2019-05-16T18:38:16.219Z,65.8
2019-05-16T18:43:13.160Z,66.9
2019-05-16T18:48:10.051Z,66.5
2019-05-16T18:53:07.410Z,65.8
2019-05-16T18:58:08.007Z,65.5
2019-05-16T19:03:01.757Z,66.1
2019-05-16T19:07:58.588Z,65.3
2019-05-16T19:12:56.465Z,65.9
2019-05-16T19:17:52.637Z,66
2019-05-16T19:22:49.508Z,66.7
2019-05-16T19:27:47.025Z,66.4
2019-05-16T19:32:44.056Z,66.8
2019-05-16T19:37:40.964Z,66.5
2019-05-16T19:42:38.316Z,66.1
2019-05-16T19:47:40.306Z,66.6
2019-05-16T19:52:31.946Z,66.9
2019-05-16T19:57:29.423Z,66.7
2019-05-16T20:02:27.293Z,67.7
2019-05-16T20:07:23.425Z,67.2
2019-05-16T20:12:20.280Z,67.2
2019-05-16T20:17:19.143Z,67.6
2019-05-16T20:22:13.961Z,67.4
2019-05-16T20:27:10.870Z,68.6
2019-05-16T20:32:09.820Z,68.1
2019-05-16T20:37:06.072Z,67.3
2019-05-16T20:42:02.298Z,67.1
2019-05-16T20:46:59.344Z,67.8
2019-05-16T20:51:57.771Z,67.3
2019-05-16T20:56:53.699Z,67.3
2019-05-16T21:01:50.598Z,68
2019-05-16T21:06:57.395Z,67.4
2019-05-16T21:11:46.792Z,67.8
2019-05-16T21:16:41.777Z,67.8
2019-05-16T21:21:38.875Z,68.5
2019-05-16T21:26:36.760Z,68.6
2019-05-16T21:31:33.410Z,68.2
2019-05-16T21:36:30.654Z,68.3
2019-05-16T21:41:27.222Z,68.9
2019-05-16T21:46:26.978Z,68.8
2019-05-16T21:51:21.342Z,69
2019-05-16T21:56:18.111Z,68.4
2019-05-16T22:01:15.237Z,69
2019-05-16T22:06:12.123Z,68.3
2019-05-16T22:11:09.026Z,68.8
2019-05-16T22:16:08.020Z,69.1
2019-05-16T22:21:02.799Z,69.2
2019-05-16T22:26:00.334Z,68.8
2019-05-16T22:30:58.461Z,69.4
2019-05-16T22:35:53.640Z,70.1
2019-05-16T22:40:50.570Z,70.1
2019-05-16T22:45:47.817Z,70
2019-05-16T22:50:44.736Z,70.2
2019-05-16T22:55:41.374Z,69.6
2019-05-16T23:00:41.250Z,69.7
2019-05-16T23:05:36.814Z,69.3
2019-05-16T23:10:32.401Z,70
2019-05-16T23:15:29.262Z,70.4
2019-05-16T23:20:27.710Z,70.3
2019-05-16T23:25:23.382Z,70.1
2019-05-16T23:30:20.124Z,70.3
2019-05-16T23:35:17.248Z,70.3
2019-05-16T23:40:13.939Z,69.7
2019-05-16T23:45:11.139Z,70.1
2019-05-16T23:50:08.072Z,70.1
2019-05-16T23:55:07.858Z,70
